sensor_id;sensor_type;location;lat;lon;timestamp;P1;durP1;ratioP1;P2;durP2;ratioP2
78312;SDS011;67568;47.438;21.408;2023-02-21T00:01:30;13.68;;;7.20;;
78312;SDS011;67568;47.438;21.408;2023-02-21T00:03:57;14.15;;;7.30;;
78312;SDS011;67568;47.438;21.408;2023-02-21T00:06:26;14.93;;;7.30;;
78312;SDS011;67568;47.438;21.408;2023-02-21T00:08:53;14.98;;;7.72;;
78312;SDS011;67568;47.438;21.408;2023-02-21T00:11:20;14.77;;;7.80;;
78312;SDS011;67568;47.438;21.408;2023-02-21T00:13:49;14.63;;;7.38;;
78312;SDS011;67568;47.438;21.408;2023-02-21T00:16:16;13.90;;;7.78;;
78312;SDS011;67568;47.438;21.408;2023-02-21T00:18:43;14.20;;;7.20;;
78312;SDS011;67568;47.438;21.408;2023-02-21T00:21:09;13.38;;;7.07;;
78312;SDS011;67568;47.438;21.408;2023-02-21T00:23:36;15.00;;;7.90;;
78312;SDS011;67568;47.438;21.408;2023-02-21T00:26:03;13.90;;;7.47;;
78312;SDS011;67568;47.438;21.408;2023-02-21T00:28:31;13.82;;;7.05;;
78312;SDS011;67568;47.438;21.408;2023-02-21T00:30:57;15.63;;;7.72;;
78312;SDS011;67568;47.438;21.408;2023-02-21T00:33:24;13.00;;;7.22;;
78312;SDS011;67568;47.438;21.408;2023-02-21T00:35:51;14.82;;;7.18;;
78312;SDS011;67568;47.438;21.408;2023-02-21T00:38:18;19.30;;;8.20;;
78312;SDS011;67568;47.438;21.408;2023-02-21T00:40:44;15.57;;;7.95;;
78312;SDS011;67568;47.438;21.408;2023-02-21T00:43:11;16.75;;;7.32;;
78312;SDS011;67568;47.438;21.408;2023-02-21T00:45:37;14.25;;;7.22;;
78312;SDS011;67568;47.438;21.408;2023-02-21T00:48:04;14.48;;;7.47;;
78312;SDS011;67568;47.438;21.408;2023-02-21T00:50:31;14.35;;;7.95;;
78312;SDS011;67568;47.438;21.408;2023-02-21T00:52:57;14.35;;;7.35;;
78312;SDS011;67568;47.438;21.408;2023-02-21T00:55:24;15.68;;;7.18;;
78312;SDS011;67568;47.438;21.408;2023-02-21T00:57:51;12.95;;;7.47;;
78312;SDS011;67568;47.438;21.408;2023-02-21T01:00:18;14.43;;;7.30;;
78312;SDS011;67568;47.438;21.408;2023-02-21T01:02:47;14.45;;;7.63;;
78312;SDS011;67568;47.438;21.408;2023-02-21T01:05:13;15.23;;;7.60;;
78312;SDS011;67568;47.438;21.408;2023-02-21T01:07:40;14.75;;;7.63;;
78312;SDS011;67568;47.438;21.408;2023-02-21T01:10:07;13.98;;;7.80;;
78312;SDS011;67568;47.438;21.408;2023-02-21T01:12:34;14.75;;;7.30;;
78312;SDS011;67568;47.438;21.408;2023-02-21T01:15:00;14.30;;;6.90;;
78312;SDS011;67568;47.438;21.408;2023-02-21T01:17:27;16.02;;;7.72;;
78312;SDS011;67568;47.438;21.408;2023-02-21T01:19:53;14.77;;;7.60;;
78312;SDS011;67568;47.438;21.408;2023-02-21T01:22:21;14.18;;;7.43;;
78312;SDS011;67568;47.438;21.408;2023-02-21T01:24:48;15.15;;;7.88;;
78312;SDS011;67568;47.438;21.408;2023-02-21T01:27:15;13.85;;;7.82;;
78312;SDS011;67568;47.438;21.408;2023-02-21T01:29:42;13.82;;;7.90;;
78312;SDS011;67568;47.438;21.408;2023-02-21T01:32:09;14.75;;;7.55;;
78312;SDS011;67568;47.438;21.408;2023-02-21T01:34:35;17.02;;;7.25;;
78312;SDS011;67568;47.438;21.408;2023-02-21T01:37:02;14.00;;;8.00;;
78312;SDS011;67568;47.438;21.408;2023-02-21T01:39:28;14.98;;;8.15;;
78312;SDS011;67568;47.438;21.408;2023-02-21T01:41:56;14.82;;;8.00;;
78312;SDS011;67568;47.438;21.408;2023-02-21T01:46:55;13.20;;;7.40;;
78312;SDS011;67568;47.438;21.408;2023-02-21T01:49:21;15.52;;;7.57;;
78312;SDS011;67568;47.438;21.408;2023-02-21T01:51:48;14.15;;;7.55;;
78312;SDS011;67568;47.438;21.408;2023-02-21T01:54:15;15.25;;;7.82;;
78312;SDS011;67568;47.438;21.408;2023-02-21T01:56:43;15.10;;;8.20;;
78312;SDS011;67568;47.438;21.408;2023-02-21T01:59:11;14.45;;;8.07;;
78312;SDS011;67568;47.438;21.408;2023-02-21T02:01:40;14.10;;;7.15;;
78312;SDS011;67568;47.438;21.408;2023-02-21T02:04:12;16.73;;;8.50;;
78312;SDS011;67568;47.438;21.408;2023-02-21T02:06:39;16.20;;;7.78;;
78312;SDS011;67568;47.438;21.408;2023-02-21T02:09:19;13.85;;;7.00;;
78312;SDS011;67568;47.438;21.408;2023-02-21T02:43:04;16.80;;;7.78;;
78312;SDS011;67568;47.438;21.408;2023-02-21T02:45:43;13.25;;;6.80;;
78312;SDS011;67568;47.438;21.408;2023-02-21T02:48:16;13.30;;;6.70;;
78312;SDS011;67568;47.438;21.408;2023-02-21T02:50:50;14.80;;;7.20;;
78312;SDS011;67568;47.438;21.408;2023-02-21T02:53:21;15.85;;;7.32;;
78312;SDS011;67568;47.438;21.408;2023-02-21T02:55:59;13.95;;;6.95;;
78312;SDS011;67568;47.438;21.408;2023-02-21T02:58:30;12.85;;;7.18;;
78312;SDS011;67568;47.438;21.408;2023-02-21T03:01:13;14.55;;;7.32;;
78312;SDS011;67568;47.438;21.408;2023-02-21T03:04:29;12.68;;;6.88;;
78312;SDS011;67568;47.438;21.408;2023-02-21T03:09:33;12.43;;;6.78;;
78312;SDS011;67568;47.438;21.408;2023-02-21T03:15:02;13.18;;;6.82;;
78312;SDS011;67568;47.438;21.408;2023-02-21T03:18:02;13.55;;;7.53;;
78312;SDS011;67568;47.438;21.408;2023-02-21T03:20:34;14.10;;;7.30;;
78312;SDS011;67568;47.438;21.408;2023-02-21T03:23:03;13.68;;;6.55;;
78312;SDS011;67568;47.438;21.408;2023-02-21T03:25:31;14.55;;;6.63;;
78312;SDS011;67568;47.438;21.408;2023-02-21T03:28:00;12.95;;;6.38;;
78312;SDS011;67568;47.438;21.408;2023-02-21T03:30:28;12.23;;;6.22;;
78312;SDS011;67568;47.438;21.408;2023-02-21T03:32:55;13.95;;;6.72;;
78312;SDS011;67568;47.438;21.408;2023-02-21T03:35:22;13.38;;;5.88;;
78312;SDS011;67568;47.438;21.408;2023-02-21T03:37:53;14.70;;;6.25;;
78312;SDS011;67568;47.438;21.408;2023-02-21T03:40:26;11.88;;;6.05;;
78312;SDS011;67568;47.438;21.408;2023-02-21T03:42:55;12.05;;;5.78;;
78312;SDS011;67568;47.438;21.408;2023-02-21T03:45:23;11.95;;;6.20;;
78312;SDS011;67568;47.438;21.408;2023-02-21T03:47:50;12.55;;;6.38;;
78312;SDS011;67568;47.438;21.408;2023-02-21T03:50:17;12.77;;;6.43;;
78312;SDS011;67568;47.438;21.408;2023-02-21T03:52:43;11.15;;;5.30;;
78312;SDS011;67568;47.438;21.408;2023-02-21T03:55:10;12.23;;;5.85;;
78312;SDS011;67568;47.438;21.408;2023-02-21T03:57:37;11.77;;;6.00;;
78312;SDS011;67568;47.438;21.408;2023-02-21T04:00:04;13.60;;;5.65;;
78312;SDS011;67568;47.438;21.408;2023-02-21T04:06:03;10.93;;;5.00;;
78312;SDS011;67568;47.438;21.408;2023-02-21T04:08:30;10.63;;;5.20;;
78312;SDS011;67568;47.438;21.408;2023-02-21T04:10:57;12.90;;;5.35;;
78312;SDS011;67568;47.438;21.408;2023-02-21T04:13:23;10.43;;;4.93;;
78312;SDS011;67568;47.438;21.408;2023-02-21T04:15:50;9.73;;;4.93;;
78312;SDS011;67568;47.438;21.408;2023-02-21T04:18:17;10.55;;;5.30;;
78312;SDS011;67568;47.438;21.408;2023-02-21T04:20:43;10.38;;;4.93;;
78312;SDS011;67568;47.438;21.408;2023-02-21T04:23:10;9.52;;;4.60;;
78312;SDS011;67568;47.438;21.408;2023-02-21T04:25:36;10.68;;;4.93;;
78312;SDS011;67568;47.438;21.408;2023-02-21T04:28:03;11.60;;;4.90;;
78312;SDS011;67568;47.438;21.408;2023-02-21T04:30:30;10.93;;;4.75;;
78312;SDS011;67568;47.438;21.408;2023-02-21T04:32:57;11.07;;;4.57;;
78312;SDS011;67568;47.438;21.408;2023-02-21T04:35:24;9.52;;;4.68;;
78312;SDS011;67568;47.438;21.408;2023-02-21T04:37:50;9.75;;;4.25;;
78312;SDS011;67568;47.438;21.408;2023-02-21T04:40:17;8.60;;;4.00;;
78312;SDS011;67568;47.438;21.408;2023-02-21T04:42:44;12.40;;;4.55;;
78312;SDS011;67568;47.438;21.408;2023-02-21T04:45:10;9.90;;;4.35;;
78312;SDS011;67568;47.438;21.408;2023-02-21T04:47:37;12.48;;;5.03;;
78312;SDS011;67568;47.438;21.408;2023-02-21T04:50:05;10.38;;;3.58;;
78312;SDS011;67568;47.438;21.408;2023-02-21T04:52:31;8.52;;;3.88;;
78312;SDS011;67568;47.438;21.408;2023-02-21T04:54:58;8.90;;;4.20;;
78312;SDS011;67568;47.438;21.408;2023-02-21T04:57:25;9.27;;;4.28;;
78312;SDS011;67568;47.438;21.408;2023-02-21T04:59:55;9.23;;;3.90;;
78312;SDS011;67568;47.438;21.408;2023-02-21T05:02:23;9.70;;;4.20;;
78312;SDS011;67568;47.438;21.408;2023-02-21T05:04:51;9.23;;;3.85;;
78312;SDS011;67568;47.438;21.408;2023-02-21T05:07:18;8.15;;;3.80;;
78312;SDS011;67568;47.438;21.408;2023-02-21T05:09:44;8.27;;;4.05;;
78312;SDS011;67568;47.438;21.408;2023-02-21T05:12:11;12.57;;;4.10;;
78312;SDS011;67568;47.438;21.408;2023-02-21T05:14:38;12.10;;;4.55;;
78312;SDS011;67568;47.438;21.408;2023-02-21T05:17:04;11.18;;;4.85;;
78312;SDS011;67568;47.438;21.408;2023-02-21T05:19:32;11.45;;;3.97;;
78312;SDS011;67568;47.438;21.408;2023-02-21T05:22:00;8.60;;;3.67;;
78312;SDS011;67568;47.438;21.408;2023-02-21T05:24:28;9.23;;;3.97;;
78312;SDS011;67568;47.438;21.408;2023-02-21T05:26:56;8.13;;;3.78;;
78312;SDS011;67568;47.438;21.408;2023-02-21T05:29:23;9.05;;;4.05;;
78312;SDS011;67568;47.438;21.408;2023-02-21T05:31:50;6.97;;;3.42;;
78312;SDS011;67568;47.438;21.408;2023-02-21T05:34:17;10.15;;;3.55;;
78312;SDS011;67568;47.438;21.408;2023-02-21T05:36:43;8.38;;;3.42;;
78312;SDS011;67568;47.438;21.408;2023-02-21T05:39:10;10.45;;;3.70;;
78312;SDS011;67568;47.438;21.408;2023-02-21T05:41:37;10.00;;;3.97;;
78312;SDS011;67568;47.438;21.408;2023-02-21T05:44:04;9.18;;;4.22;;
78312;SDS011;67568;47.438;21.408;2023-02-21T05:46:31;10.75;;;3.60;;
78312;SDS011;67568;47.438;21.408;2023-02-21T05:49:00;9.25;;;3.97;;
78312;SDS011;67568;47.438;21.408;2023-02-21T05:51:35;10.43;;;4.20;;
78312;SDS011;67568;47.438;21.408;2023-02-21T05:54:03;8.65;;;3.75;;
78312;SDS011;67568;47.438;21.408;2023-02-21T05:56:36;9.38;;;3.78;;
78312;SDS011;67568;47.438;21.408;2023-02-21T05:59:04;10.45;;;3.33;;
78312;SDS011;67568;47.438;21.408;2023-02-21T06:01:31;7.28;;;3.22;;
78312;SDS011;67568;47.438;21.408;2023-02-21T06:03:57;9.40;;;3.40;;
78312;SDS011;67568;47.438;21.408;2023-02-21T06:06:24;8.38;;;3.88;;
78312;SDS011;67568;47.438;21.408;2023-02-21T06:08:51;9.98;;;3.95;;
78312;SDS011;67568;47.438;21.408;2023-02-21T06:11:21;9.10;;;3.88;;
78312;SDS011;67568;47.438;21.408;2023-02-21T06:13:54;10.93;;;3.85;;
78312;SDS011;67568;47.438;21.408;2023-02-21T06:16:22;12.38;;;4.75;;
78312;SDS011;67568;47.438;21.408;2023-02-21T06:18:50;9.93;;;4.50;;
78312;SDS011;67568;47.438;21.408;2023-02-21T06:21:21;13.38;;;4.40;;
78312;SDS011;67568;47.438;21.408;2023-02-21T06:23:48;9.50;;;3.90;;
78312;SDS011;67568;47.438;21.408;2023-02-21T06:26:15;7.25;;;3.60;;
78312;SDS011;67568;47.438;21.408;2023-02-21T06:28:43;8.13;;;3.80;;
78312;SDS011;67568;47.438;21.408;2023-02-21T06:31:10;10.40;;;3.75;;
78312;SDS011;67568;47.438;21.408;2023-02-21T06:33:37;9.25;;;3.60;;
78312;SDS011;67568;47.438;21.408;2023-02-21T06:36:07;10.95;;;4.60;;
78312;SDS011;67568;47.438;21.408;2023-02-21T06:38:37;7.82;;;3.63;;
78312;SDS011;67568;47.438;21.408;2023-02-21T06:41:05;9.73;;;3.92;;
78312;SDS011;67568;47.438;21.408;2023-02-21T06:43:32;9.80;;;4.10;;
78312;SDS011;67568;47.438;21.408;2023-02-21T06:45:59;10.40;;;4.75;;
78312;SDS011;67568;47.438;21.408;2023-02-21T06:48:27;10.43;;;4.17;;
78312;SDS011;67568;47.438;21.408;2023-02-21T06:50:55;12.73;;;4.50;;
78312;SDS011;67568;47.438;21.408;2023-02-21T06:53:26;10.00;;;4.32;;
78312;SDS011;67568;47.438;21.408;2023-02-21T06:55:59;10.48;;;4.70;;
78312;SDS011;67568;47.438;21.408;2023-02-21T06:58:26;9.63;;;3.92;;
78312;SDS011;67568;47.438;21.408;2023-02-21T07:00:53;10.77;;;4.23;;
78312;SDS011;67568;47.438;21.408;2023-02-21T07:03:21;11.68;;;4.60;;
78312;SDS011;67568;47.438;21.408;2023-02-21T07:05:48;9.15;;;3.80;;
78312;SDS011;67568;47.438;21.408;2023-02-21T07:08:15;8.80;;;3.83;;
78312;SDS011;67568;47.438;21.408;2023-02-21T07:10:44;8.10;;;3.65;;
78312;SDS011;67568;47.438;21.408;2023-02-21T07:13:11;10.03;;;3.80;;
78312;SDS011;67568;47.438;21.408;2023-02-21T07:15:41;7.75;;;3.15;;
78312;SDS011;67568;47.438;21.408;2023-02-21T07:18:08;9.52;;;3.38;;
78312;SDS011;67568;47.438;21.408;2023-02-21T07:20:35;7.15;;;3.50;;
78312;SDS011;67568;47.438;21.408;2023-02-21T07:23:04;8.25;;;3.63;;
78312;SDS011;67568;47.438;21.408;2023-02-21T07:25:31;9.97;;;3.93;;
78312;SDS011;67568;47.438;21.408;2023-02-21T07:28:12;9.90;;;3.67;;
78312;SDS011;67568;47.438;21.408;2023-02-21T07:30:39;9.23;;;3.70;;
78312;SDS011;67568;47.438;21.408;2023-02-21T07:33:06;8.20;;;3.55;;
78312;SDS011;67568;47.438;21.408;2023-02-21T07:35:33;9.48;;;3.40;;
78312;SDS011;67568;47.438;21.408;2023-02-21T07:38:00;7.33;;;3.07;;
78312;SDS011;67568;47.438;21.408;2023-02-21T07:40:26;7.75;;;2.75;;
78312;SDS011;67568;47.438;21.408;2023-02-21T07:42:53;8.85;;;2.95;;
78312;SDS011;67568;47.438;21.408;2023-02-21T07:45:20;9.45;;;3.40;;
78312;SDS011;67568;47.438;21.408;2023-02-21T07:47:47;13.18;;;2.50;;
78312;SDS011;67568;47.438;21.408;2023-02-21T07:50:14;9.17;;;2.90;;
78312;SDS011;67568;47.438;21.408;2023-02-21T07:52:42;6.88;;;2.95;;
78312;SDS011;67568;47.438;21.408;2023-02-21T07:55:10;8.48;;;2.47;;
78312;SDS011;67568;47.438;21.408;2023-02-21T07:57:37;8.07;;;2.60;;
78312;SDS011;67568;47.438;21.408;2023-02-21T08:00:04;10.70;;;2.80;;
78312;SDS011;67568;47.438;21.408;2023-02-21T08:02:31;7.50;;;2.43;;
78312;SDS011;67568;47.438;21.408;2023-02-21T08:05:00;15.18;;;3.03;;
78312;SDS011;67568;47.438;21.408;2023-02-21T08:07:27;7.95;;;3.85;;
78312;SDS011;67568;47.438;21.408;2023-02-21T08:09:54;12.02;;;2.90;;
78312;SDS011;67568;47.438;21.408;2023-02-21T08:12:21;7.43;;;2.63;;
78312;SDS011;67568;47.438;21.408;2023-02-21T08:14:48;7.10;;;2.70;;
78312;SDS011;67568;47.438;21.408;2023-02-21T08:17:14;8.85;;;2.45;;
78312;SDS011;67568;47.438;21.408;2023-02-21T08:19:41;5.53;;;2.15;;
78312;SDS011;67568;47.438;21.408;2023-02-21T08:22:08;8.25;;;2.30;;
78312;SDS011;67568;47.438;21.408;2023-02-21T08:24:34;7.25;;;2.25;;
78312;SDS011;67568;47.438;21.408;2023-02-21T08:27:01;7.93;;;1.97;;
78312;SDS011;67568;47.438;21.408;2023-02-21T08:29:28;9.00;;;2.45;;
78312;SDS011;67568;47.438;21.408;2023-02-21T08:31:55;6.90;;;2.08;;
78312;SDS011;67568;47.438;21.408;2023-02-21T08:34:22;7.20;;;2.08;;
78312;SDS011;67568;47.438;21.408;2023-02-21T08:36:49;6.38;;;2.13;;
78312;SDS011;67568;47.438;21.408;2023-02-21T08:39:15;10.80;;;2.73;;
78312;SDS011;67568;47.438;21.408;2023-02-21T08:41:43;11.05;;;2.55;;
78312;SDS011;67568;47.438;21.408;2023-02-21T08:44:12;7.68;;;2.05;;
78312;SDS011;67568;47.438;21.408;2023-02-21T08:46:39;5.35;;;1.70;;
78312;SDS011;67568;47.438;21.408;2023-02-21T08:49:06;9.07;;;1.98;;
78312;SDS011;67568;47.438;21.408;2023-02-21T08:51:34;6.47;;;2.60;;
78312;SDS011;67568;47.438;21.408;2023-02-21T08:54:04;6.70;;;2.17;;
78312;SDS011;67568;47.438;21.408;2023-02-21T08:56:34;7.18;;;1.83;;
78312;SDS011;67568;47.438;21.408;2023-02-21T08:59:01;5.45;;;1.85;;
78312;SDS011;67568;47.438;21.408;2023-02-21T09:01:33;9.35;;;1.95;;
78312;SDS011;67568;47.438;21.408;2023-02-21T09:04:04;5.53;;;1.93;;
78312;SDS011;67568;47.438;21.408;2023-02-21T09:06:31;7.20;;;1.90;;
78312;SDS011;67568;47.438;21.408;2023-02-21T09:08:57;5.22;;;1.95;;
78312;SDS011;67568;47.438;21.408;2023-02-21T09:11:24;5.43;;;1.90;;
78312;SDS011;67568;47.438;21.408;2023-02-21T09:13:51;6.75;;;1.70;;
78312;SDS011;67568;47.438;21.408;2023-02-21T09:16:17;5.30;;;1.50;;
78312;SDS011;67568;47.438;21.408;2023-02-21T09:18:51;4.45;;;1.70;;
78312;SDS011;67568;47.438;21.408;2023-02-21T09:21:24;5.55;;;1.67;;
78312;SDS011;67568;47.438;21.408;2023-02-21T09:23:55;6.45;;;1.70;;
78312;SDS011;67568;47.438;21.408;2023-02-21T09:26:22;8.30;;;2.58;;
78312;SDS011;67568;47.438;21.408;2023-02-21T09:28:49;7.30;;;1.83;;
78312;SDS011;67568;47.438;21.408;2023-02-21T09:31:17;4.63;;;1.70;;
78312;SDS011;67568;47.438;21.408;2023-02-21T09:33:45;6.20;;;1.50;;
78312;SDS011;67568;47.438;21.408;2023-02-21T09:36:11;7.47;;;1.73;;
78312;SDS011;67568;47.438;21.408;2023-02-21T09:38:38;7.88;;;1.90;;
78312;SDS011;67568;47.438;21.408;2023-02-21T09:41:05;7.80;;;1.70;;
78312;SDS011;67568;47.438;21.408;2023-02-21T09:43:34;8.90;;;2.10;;
78312;SDS011;67568;47.438;21.408;2023-02-21T09:46:10;10.27;;;1.90;;
78312;SDS011;67568;47.438;21.408;2023-02-21T09:48:41;7.47;;;1.90;;
78312;SDS011;67568;47.438;21.408;2023-02-21T09:51:10;8.55;;;1.77;;
78312;SDS011;67568;47.438;21.408;2023-02-21T09:53:39;6.67;;;1.70;;
78312;SDS011;67568;47.438;21.408;2023-02-21T09:56:11;10.00;;;2.60;;
78312;SDS011;67568;47.438;21.408;2023-02-21T09:58:51;8.98;;;2.10;;
78312;SDS011;67568;47.438;21.408;2023-02-21T10:06:59;10.30;;;2.13;;
78312;SDS011;67568;47.438;21.408;2023-02-21T10:14:51;7.20;;;1.90;;
78312;SDS011;67568;47.438;21.408;2023-02-21T10:17:31;6.22;;;1.70;;
78312;SDS011;67568;47.438;21.408;2023-02-21T10:20:32;8.63;;;1.97;;
78312;SDS011;67568;47.438;21.408;2023-02-21T10:26:08;8.07;;;1.83;;
78312;SDS011;67568;47.438;21.408;2023-02-21T10:28:39;6.55;;;1.77;;
78312;SDS011;67568;47.438;21.408;2023-02-21T10:31:08;7.07;;;2.30;;
78312;SDS011;67568;47.438;21.408;2023-02-21T10:33:39;7.37;;;1.80;;
78312;SDS011;67568;47.438;21.408;2023-02-21T10:36:13;5.45;;;1.70;;
78312;SDS011;67568;47.438;21.408;2023-02-21T10:38:46;8.55;;;2.42;;
78312;SDS011;67568;47.438;21.408;2023-02-21T10:41:20;7.55;;;2.35;;
78312;SDS011;67568;47.438;21.408;2023-02-21T10:43:48;7.85;;;2.72;;
78312;SDS011;67568;47.438;21.408;2023-02-21T10:46:22;8.83;;;1.87;;
78312;SDS011;67568;47.438;21.408;2023-02-21T10:48:54;6.90;;;1.80;;
78312;SDS011;67568;47.438;21.408;2023-02-21T10:51:32;12.00;;;2.25;;
78312;SDS011;67568;47.438;21.408;2023-02-21T10:54:20;7.63;;;1.70;;
78312;SDS011;67568;47.438;21.408;2023-02-21T10:56:48;5.60;;;1.77;;
78312;SDS011;67568;47.438;21.408;2023-02-21T10:59:35;9.13;;;2.27;;
78312;SDS011;67568;47.438;21.408;2023-02-21T11:02:24;13.02;;;2.05;;
78312;SDS011;67568;47.438;21.408;2023-02-21T11:04:55;6.75;;;1.52;;
78312;SDS011;67568;47.438;21.408;2023-02-21T11:07:37;5.05;;;1.60;;
78312;SDS011;67568;47.438;21.408;2023-02-21T11:15:49;4.70;;;1.33;;
78312;SDS011;67568;47.438;21.408;2023-02-21T11:18:35;5.78;;;1.52;;
78312;SDS011;67568;47.438;21.408;2023-02-21T11:21:35;6.88;;;1.60;;
78312;SDS011;67568;47.438;21.408;2023-02-21T11:23:55;7.38;;;1.52;;
78312;SDS011;67568;47.438;21.408;2023-02-21T11:26:28;4.83;;;1.73;;
78312;SDS011;67568;47.438;21.408;2023-02-21T11:29:07;9.68;;;1.73;;
78312;SDS011;67568;47.438;21.408;2023-02-21T11:31:37;8.93;;;2.20;;
78312;SDS011;67568;47.438;21.408;2023-02-21T11:34:05;5.80;;;2.00;;
78312;SDS011;67568;47.438;21.408;2023-02-21T11:36:35;6.97;;;1.65;;
78312;SDS011;67568;47.438;21.408;2023-02-21T11:39:23;7.20;;;1.80;;
78312;SDS011;67568;47.438;21.408;2023-02-21T11:41:57;6.50;;;1.90;;
78312;SDS011;67568;47.438;21.408;2023-02-21T11:49:52;10.68;;;1.65;;
78312;SDS011;67568;47.438;21.408;2023-02-21T11:52:22;10.23;;;1.93;;
78312;SDS011;67568;47.438;21.408;2023-02-21T11:54:54;12.95;;;1.83;;
78312;SDS011;67568;47.438;21.408;2023-02-21T12:10:47;7.32;;;1.77;;
78312;SDS011;67568;47.438;21.408;2023-02-21T12:25:26;7.10;;;1.60;;
78312;SDS011;67568;47.438;21.408;2023-02-21T12:28:10;5.57;;;1.60;;
78312;SDS011;67568;47.438;21.408;2023-02-21T12:47:40;11.23;;;2.27;;
78312;SDS011;67568;47.438;21.408;2023-02-21T12:50:24;8.45;;;1.50;;
78312;SDS011;67568;47.438;21.408;2023-02-21T12:53:18;7.22;;;1.63;;
78312;SDS011;67568;47.438;21.408;2023-02-21T12:56:04;7.25;;;2.10;;
78312;SDS011;67568;47.438;21.408;2023-02-21T12:58:48;7.05;;;1.67;;
78312;SDS011;67568;47.438;21.408;2023-02-21T13:01:22;4.73;;;1.40;;
78312;SDS011;67568;47.438;21.408;2023-02-21T13:06:33;5.65;;;1.60;;
78312;SDS011;67568;47.438;21.408;2023-02-21T13:11:41;6.88;;;1.60;;
78312;SDS011;67568;47.438;21.408;2023-02-21T13:14:23;5.50;;;1.27;;
78312;SDS011;67568;47.438;21.408;2023-02-21T13:16:53;4.43;;;1.20;;
78312;SDS011;67568;47.438;21.408;2023-02-21T13:19:20;5.05;;;1.27;;
78312;SDS011;67568;47.438;21.408;2023-02-21T13:26:58;9.30;;;1.43;;
78312;SDS011;67568;47.438;21.408;2023-02-21T13:29:30;8.75;;;1.50;;
78312;SDS011;67568;47.438;21.408;2023-02-21T13:32:05;7.57;;;1.48;;
78312;SDS011;67568;47.438;21.408;2023-02-21T13:34:44;11.55;;;1.58;;
78312;SDS011;67568;47.438;21.408;2023-02-21T13:37:20;4.85;;;1.20;;
78312;SDS011;67568;47.438;21.408;2023-02-21T13:39:55;5.20;;;1.30;;
78312;SDS011;67568;47.438;21.408;2023-02-21T13:42:25;7.05;;;1.25;;
78312;SDS011;67568;47.438;21.408;2023-02-21T13:58:32;7.63;;;1.70;;
78312;SDS011;67568;47.438;21.408;2023-02-21T14:01:13;8.25;;;1.75;;
78312;SDS011;67568;47.438;21.408;2023-02-21T14:03:45;7.82;;;1.55;;
78312;SDS011;67568;47.438;21.408;2023-02-21T14:06:24;7.17;;;1.70;;
78312;SDS011;67568;47.438;21.408;2023-02-21T14:08:58;7.35;;;1.70;;
78312;SDS011;67568;47.438;21.408;2023-02-21T14:11:33;8.70;;;1.60;;
78312;SDS011;67568;47.438;21.408;2023-02-21T14:14:04;6.97;;;1.50;;
78312;SDS011;67568;47.438;21.408;2023-02-21T14:19:56;7.33;;;1.57;;
78312;SDS011;67568;47.438;21.408;2023-02-21T14:25:06;5.85;;;1.95;;
78312;SDS011;67568;47.438;21.408;2023-02-21T14:27:42;6.50;;;1.73;;
78312;SDS011;67568;47.438;21.408;2023-02-21T14:32:45;6.60;;;1.90;;
78312;SDS011;67568;47.438;21.408;2023-02-21T14:38:06;7.50;;;2.10;;
78312;SDS011;67568;47.438;21.408;2023-02-21T14:43:31;6.72;;;2.00;;
78312;SDS011;67568;47.438;21.408;2023-02-21T14:49:01;6.90;;;1.50;;
78312;SDS011;67568;47.438;21.408;2023-02-21T15:00:13;8.23;;;1.70;;
78312;SDS011;67568;47.438;21.408;2023-02-21T15:08:23;9.10;;;1.88;;
78312;SDS011;67568;47.438;21.408;2023-02-21T15:10:52;6.72;;;1.73;;
78312;SDS011;67568;47.438;21.408;2023-02-21T15:13:26;3.80;;;1.37;;
78312;SDS011;67568;47.438;21.408;2023-02-21T15:16:05;15.65;;;1.80;;
78312;SDS011;67568;47.438;21.408;2023-02-21T15:18:38;8.50;;;2.20;;
78312;SDS011;67568;47.438;21.408;2023-02-21T15:23:41;7.47;;;1.80;;
78312;SDS011;67568;47.438;21.408;2023-02-21T15:26:25;8.10;;;2.17;;
78312;SDS011;67568;47.438;21.408;2023-02-21T15:29:05;5.63;;;2.00;;
78312;SDS011;67568;47.438;21.408;2023-02-21T15:31:40;10.95;;;3.20;;
78312;SDS011;67568;47.438;21.408;2023-02-21T15:34:21;12.85;;;2.13;;
78312;SDS011;67568;47.438;21.408;2023-02-21T15:36:54;12.35;;;2.97;;
78312;SDS011;67568;47.438;21.408;2023-02-21T15:39:41;6.57;;;2.23;;
78312;SDS011;67568;47.438;21.408;2023-02-21T15:42:11;6.70;;;2.10;;
78312;SDS011;67568;47.438;21.408;2023-02-21T15:44:42;5.07;;;1.70;;
78312;SDS011;67568;47.438;21.408;2023-02-21T15:47:23;7.53;;;1.70;;
78312;SDS011;67568;47.438;21.408;2023-02-21T15:49:57;8.32;;;2.85;;
78312;SDS011;67568;47.438;21.408;2023-02-21T15:52:49;9.83;;;3.00;;
78312;SDS011;67568;47.438;21.408;2023-02-21T15:57:46;8.32;;;3.30;;
78312;SDS011;67568;47.438;21.408;2023-02-21T16:11:48;11.55;;;5.07;;
78312;SDS011;67568;47.438;21.408;2023-02-21T16:16:47;9.40;;;2.60;;
78312;SDS011;67568;47.438;21.408;2023-02-21T16:19:16;7.80;;;2.50;;
78312;SDS011;67568;47.438;21.408;2023-02-21T16:21:43;7.35;;;2.28;;
78312;SDS011;67568;47.438;21.408;2023-02-21T16:24:14;11.50;;;3.70;;
78312;SDS011;67568;47.438;21.408;2023-02-21T16:27:01;9.75;;;2.53;;
78312;SDS011;67568;47.438;21.408;2023-02-21T16:29:30;6.35;;;2.30;;
78312;SDS011;67568;47.438;21.408;2023-02-21T16:31:57;6.70;;;2.07;;
78312;SDS011;67568;47.438;21.408;2023-02-21T16:34:24;10.70;;;3.00;;
78312;SDS011;67568;47.438;21.408;2023-02-21T16:36:59;5.82;;;2.33;;
78312;SDS011;67568;47.438;21.408;2023-02-21T16:39:26;6.00;;;2.30;;
78312;SDS011;67568;47.438;21.408;2023-02-21T16:41:53;13.80;;;3.10;;
78312;SDS011;67568;47.438;21.408;2023-02-21T16:44:20;7.97;;;2.80;;
78312;SDS011;67568;47.438;21.408;2023-02-21T16:46:46;7.07;;;2.85;;
78312;SDS011;67568;47.438;21.408;2023-02-21T16:49:16;8.70;;;3.63;;
78312;SDS011;67568;47.438;21.408;2023-02-21T16:51:43;7.22;;;3.03;;
78312;SDS011;67568;47.438;21.408;2023-02-21T16:54:09;9.15;;;3.03;;
78312;SDS011;67568;47.438;21.408;2023-02-21T16:56:36;7.03;;;2.83;;
78312;SDS011;67568;47.438;21.408;2023-02-21T16:59:03;10.30;;;3.38;;
78312;SDS011;67568;47.438;21.408;2023-02-21T17:01:30;7.25;;;2.47;;
78312;SDS011;67568;47.438;21.408;2023-02-21T17:03:57;7.35;;;2.58;;
78312;SDS011;67568;47.438;21.408;2023-02-21T17:06:24;10.00;;;3.10;;
78312;SDS011;67568;47.438;21.408;2023-02-21T17:08:52;6.03;;;2.70;;
78312;SDS011;67568;47.438;21.408;2023-02-21T17:11:19;6.72;;;2.70;;
78312;SDS011;67568;47.438;21.408;2023-02-21T17:13:46;6.75;;;2.83;;
78312;SDS011;67568;47.438;21.408;2023-02-21T17:16:13;5.68;;;2.38;;
78312;SDS011;67568;47.438;21.408;2023-02-21T17:18:40;5.47;;;2.20;;
78312;SDS011;67568;47.438;21.408;2023-02-21T17:21:08;6.30;;;2.47;;
78312;SDS011;67568;47.438;21.408;2023-02-21T17:23:35;6.45;;;2.28;;
78312;SDS011;67568;47.438;21.408;2023-02-21T17:26:02;6.53;;;2.67;;
78312;SDS011;67568;47.438;21.408;2023-02-21T17:28:29;6.40;;;2.10;;
78312;SDS011;67568;47.438;21.408;2023-02-21T17:30:56;6.78;;;2.50;;
78312;SDS011;67568;47.438;21.408;2023-02-21T17:33:23;8.70;;;2.57;;
78312;SDS011;67568;47.438;21.408;2023-02-21T17:35:51;8.35;;;2.35;;
78312;SDS011;67568;47.438;21.408;2023-02-21T17:38:18;6.95;;;2.13;;
78312;SDS011;67568;47.438;21.408;2023-02-21T17:40:45;7.35;;;2.22;;
78312;SDS011;67568;47.438;21.408;2023-02-21T17:43:13;6.82;;;2.67;;
78312;SDS011;67568;47.438;21.408;2023-02-21T17:45:41;9.00;;;2.97;;
78312;SDS011;67568;47.438;21.408;2023-02-21T17:48:08;8.18;;;3.50;;
78312;SDS011;67568;47.438;21.408;2023-02-21T17:50:34;10.30;;;3.67;;